sensor_id;sensor_type;location;lat;lon;timestamp;pressure;altitude;pressure_sealevel;temperature;humidity
35910;BME280;22004;49.120;-0.200;2024-03-02T00:02:24;99333.03;;;9.14;84.12
35910;BME280;22004;49.120;-0.200;2024-03-02T00:04:49;99330.31;;;9.80;82.92
35910;BME280;22004;49.120;-0.200;2024-03-02T00:07:14;99333.25;;;9.05;82.77
35910;BME280;22004;49.120;-0.200;2024-03-02T00:09:40;99335.94;;;9.05;84.02
35910;BME280;22004;49.120;-0.200;2024-03-02T00:12:05;99331.38;;;9.46;84.53
35910;BME280;22004;49.120;-0.200;2024-03-02T00:14:31;99329.81;;;8.44;83.39
35910;BME280;22004;49.120;-0.200;2024-03-02T00:16:57;99331.34;;;8.66;85.16
35910;BME280;22004;49.120;-0.200;2024-03-02T00:19:22;99323.38;;;9.06;83.03
35910;BME280;22004;49.120;-0.200;2024-03-02T00:21:48;99327.31;;;8.36;84.38
35910;BME280;22004;49.120;-0.200;2024-03-02T00:24:34;99320.44;;;8.20;85.31
35910;BME280;22004;49.120;-0.200;2024-03-02T00:27:01;99320.06;;;8.29;86.17
35910;BME280;22004;49.120;-0.200;2024-03-02T00:29:27;99322.94;;;7.17;87.72
35910;BME280;22004;49.120;-0.200;2024-03-02T00:31:54;99321.47;;;8.12;85.86
35910;BME280;22004;49.120;-0.200;2024-03-02T00:34:21;99316.91;;;8.06;84.62
35910;BME280;22004;49.120;-0.200;2024-03-02T00:36:47;99315.50;;;8.78;87.84
35910;BME280;22004;49.120;-0.200;2024-03-02T00:39:14;99301.78;;;7.44;85.16
35910;BME280;22004;49.120;-0.200;2024-03-02T00:41:42;99303.91;;;8.44;85.12
35910;BME280;22004;49.120;-0.200;2024-03-02T00:44:09;99301.09;;;8.66;84.60
35910;BME280;22004;49.120;-0.200;2024-03-02T00:46:40;99303.97;;;7.34;84.62
35910;BME280;22004;49.120;-0.200;2024-03-02T00:51:46;99292.59;;;7.25;85.14
35910;BME280;22004;49.120;-0.200;2024-03-02T00:54:13;99292.59;;;8.49;85.88
35910;BME280;22004;49.120;-0.200;2024-03-02T00:56:41;99279.25;;;6.76;86.69
35910;BME280;22004;49.120;-0.200;2024-03-02T00:59:06;99257.59;;;7.83;89.27
35910;BME280;22004;49.120;-0.200;2024-03-02T01:01:33;99261.63;;;7.31;88.48
35910;BME280;22004;49.120;-0.200;2024-03-02T01:03:59;99261.09;;;7.76;87.79
35910;BME280;22004;49.120;-0.200;2024-03-02T01:06:24;99245.81;;;7.29;89.17
35910;BME280;22004;49.120;-0.200;2024-03-02T01:08:49;99247.56;;;7.15;87.47
35910;BME280;22004;49.120;-0.200;2024-03-02T01:11:16;99250.06;;;7.17;89.12
35910;BME280;22004;49.120;-0.200;2024-03-02T01:13:43;99239.84;;;6.71;87.77
35910;BME280;22004;49.120;-0.200;2024-03-02T01:16:08;99245.34;;;6.91;91.17
35910;BME280;22004;49.120;-0.200;2024-03-02T01:18:33;99252.97;;;7.57;88.80
35910;BME280;22004;49.120;-0.200;2024-03-02T01:20:59;99246.44;;;6.96;88.79
35910;BME280;22004;49.120;-0.200;2024-03-02T01:23:24;99250.75;;;6.76;88.56
35910;BME280;22004;49.120;-0.200;2024-03-02T01:25:51;99244.53;;;8.01;88.00
35910;BME280;22004;49.120;-0.200;2024-03-02T01:28:17;99248.16;;;7.45;87.48
35910;BME280;22004;49.120;-0.200;2024-03-02T01:30:43;99249.91;;;6.47;88.63
35910;BME280;22004;49.120;-0.200;2024-03-02T01:33:09;99245.81;;;7.01;90.15
35910;BME280;22004;49.120;-0.200;2024-03-02T01:35:34;99249.03;;;6.90;88.61
35910;BME280;22004;49.120;-0.200;2024-03-02T01:38:03;99236.59;;;6.76;88.64
35910;BME280;22004;49.120;-0.200;2024-03-02T01:40:29;99237.16;;;6.71;88.67
35910;BME280;22004;49.120;-0.200;2024-03-02T01:42:54;99243.84;;;7.10;91.46
35910;BME280;22004;49.120;-0.200;2024-03-02T01:45:21;99242.09;;;7.65;87.19
35910;BME280;22004;49.120;-0.200;2024-03-02T01:47:47;99240.44;;;7.22;89.51
35910;BME280;22004;49.120;-0.200;2024-03-02T01:50:12;99232.41;;;8.05;90.02
35910;BME280;22004;49.120;-0.200;2024-03-02T01:52:38;99226.81;;;7.45;88.59
35910;BME280;22004;49.120;-0.200;2024-03-02T01:55:04;99217.00;;;6.62;88.38
35910;BME280;22004;49.120;-0.200;2024-03-02T01:57:31;99213.53;;;7.65;88.89
35910;BME280;22004;49.120;-0.200;2024-03-02T01:59:56;99212.78;;;7.71;88.46
35910;BME280;22004;49.120;-0.200;2024-03-02T02:02:22;99208.66;;;7.28;86.64
35910;BME280;22004;49.120;-0.200;2024-03-02T02:04:47;99209.34;;;7.43;86.65
35910;BME280;22004;49.120;-0.200;2024-03-02T02:07:13;99204.44;;;7.46;89.32
35910;BME280;22004;49.120;-0.200;2024-03-02T02:09:40;99212.16;;;8.37;87.90
35910;BME280;22004;49.120;-0.200;2024-03-02T02:12:06;99193.63;;;8.89;83.53
35910;BME280;22004;49.120;-0.200;2024-03-02T02:14:32;99186.13;;;8.04;85.52
35910;BME280;22004;49.120;-0.200;2024-03-02T02:16:58;99189.53;;;8.86;85.25
35910;BME280;22004;49.120;-0.200;2024-03-02T02:19:24;99192.97;;;9.26;86.89
35910;BME280;22004;49.120;-0.200;2024-03-02T02:21:49;99181.06;;;8.89;85.55
35910;BME280;22004;49.120;-0.200;2024-03-02T02:24:14;99164.63;;;7.58;82.51
35910;BME280;22004;49.120;-0.200;2024-03-02T02:26:39;99168.47;;;7.97;88.48
35910;BME280;22004;49.120;-0.200;2024-03-02T02:29:05;99151.00;;;8.01;84.86
35910;BME280;22004;49.120;-0.200;2024-03-02T02:31:40;99156.41;;;7.60;85.14
35910;BME280;22004;49.120;-0.200;2024-03-02T02:34:06;99131.03;;;7.29;87.17
35910;BME280;22004;49.120;-0.200;2024-03-02T02:36:32;99119.50;;;7.83;87.48
35910;BME280;22004;49.120;-0.200;2024-03-02T02:39:01;99113.94;;;7.71;86.19
35910;BME280;22004;49.120;-0.200;2024-03-02T02:41:29;99116.69;;;7.37;86.15
35910;BME280;22004;49.120;-0.200;2024-03-02T02:43:54;99124.19;;;7.74;88.83
35910;BME280;22004;49.120;-0.200;2024-03-02T02:46:20;99117.88;;;7.28;87.98
35910;BME280;22004;49.120;-0.200;2024-03-02T02:48:45;99111.25;;;7.71;87.05
35910;BME280;22004;49.120;-0.200;2024-03-02T02:51:10;99120.59;;;7.41;86.20
35910;BME280;22004;49.120;-0.200;2024-03-02T02:53:35;99130.34;;;7.68;88.64
35910;BME280;22004;49.120;-0.200;2024-03-02T02:56:05;99142.81;;;7.41;89.97
35910;BME280;22004;49.120;-0.200;2024-03-02T02:58:31;99143.56;;;7.90;89.76
35910;BME280;22004;49.120;-0.200;2024-03-02T03:00:56;99150.19;;;8.07;88.50
35910;BME280;22004;49.120;-0.200;2024-03-02T03:03:21;99143.88;;;7.54;90.96
35910;BME280;22004;49.120;-0.200;2024-03-02T03:05:47;99142.94;;;7.94;90.56
35910;BME280;22004;49.120;-0.200;2024-03-02T03:08:13;99149.28;;;7.73;89.60
35910;BME280;22004;49.120;-0.200;2024-03-02T03:10:38;99126.66;;;7.69;97.40
35910;BME280;22004;49.120;-0.200;2024-03-02T03:13:04;99131.66;;;7.92;100.00
35910;BME280;22004;49.120;-0.200;2024-03-02T03:16:16;64804.88;;;-144.39;100.00
35910;BME280;22004;49.120;-0.200;2024-03-02T03:19:40;64804.88;;;-144.39;100.00
35910;BME280;22004;49.120;-0.200;2024-03-02T03:23:04;64804.88;;;-144.39;100.00
35910;BME280;22004;49.120;-0.200;2024-03-02T03:26:28;64804.88;;;-144.39;100.00
35910;BME280;22004;49.120;-0.200;2024-03-02T03:29:52;64804.88;;;-144.39;100.00
35910;BME280;22004;49.120;-0.200;2024-03-02T03:33:16;64804.88;;;-144.39;100.00
35910;BME280;22004;49.120;-0.200;2024-03-02T03:36:40;64804.88;;;-144.39;100.00
35910;BME280;22004;49.120;-0.200;2024-03-02T03:40:04;64804.88;;;-144.39;100.00
35910;BME280;22004;49.120;-0.200;2024-03-02T03:43:33;64804.88;;;-144.39;100.00
35910;BME280;22004;49.120;-0.200;2024-03-02T03:46:57;64804.88;;;-144.39;100.00
35910;BME280;22004;49.120;-0.200;2024-03-02T03:50:21;64804.88;;;-144.39;100.00
35910;BME280;22004;49.120;-0.200;2024-03-02T03:53:45;64804.88;;;-144.39;100.00
35910;BME280;22004;49.120;-0.200;2024-03-02T03:57:08;64804.88;;;-144.39;100.00
35910;BME280;22004;49.120;-0.200;2024-03-02T04:00:32;64804.88;;;-144.39;100.00
35910;BME280;22004;49.120;-0.200;2024-03-02T04:03:56;64804.88;;;-144.39;100.00
35910;BME280;22004;49.120;-0.200;2024-03-02T04:07:21;64804.88;;;-144.39;100.00
35910;BME280;22004;49.120;-0.200;2024-03-02T04:10:44;64804.88;;;-144.39;100.00
35910;BME280;22004;49.120;-0.200;2024-03-02T04:14:08;64804.88;;;-144.39;100.00
35910;BME280;22004;49.120;-0.200;2024-03-02T04:17:33;64804.88;;;-144.39;100.00
35910;BME280;22004;49.120;-0.200;2024-03-02T04:20:57;64804.88;;;-144.39;100.00
35910;BME280;22004;49.120;-0.200;2024-03-02T04:24:22;64804.88;;;-144.39;100.00
35910;BME280;22004;49.120;-0.200;2024-03-02T04:27:46;64804.88;;;-144.39;100.00
35910;BME280;22004;49.120;-0.200;2024-03-02T04:31:10;64804.88;;;-144.39;100.00
35910;BME280;22004;49.120;-0.200;2024-03-02T04:34:34;64804.88;;;-144.39;100.00
35910;BME280;22004;49.120;-0.200;2024-03-02T04:37:58;64804.88;;;-144.39;100.00
35910;BME280;22004;49.120;-0.200;2024-03-02T04:41:22;64804.88;;;-144.39;100.00
35910;BME280;22004;49.120;-0.200;2024-03-02T04:44:46;64804.88;;;-144.39;100.00
35910;BME280;22004;49.120;-0.200;2024-03-02T04:48:09;64804.88;;;-144.39;100.00
35910;BME280;22004;49.120;-0.200;2024-03-02T04:51:33;64804.88;;;-144.39;100.00
35910;BME280;22004;49.120;-0.200;2024-03-02T04:54:57;64804.88;;;-144.39;100.00
35910;BME280;22004;49.120;-0.200;2024-03-02T04:58:40;64804.88;;;-144.39;100.00
35910;BME280;22004;49.120;-0.200;2024-03-02T05:02:04;64804.88;;;-144.39;100.00
35910;BME280;22004;49.120;-0.200;2024-03-02T05:05:28;64804.88;;;-144.39;100.00
35910;BME280;22004;49.120;-0.200;2024-03-02T05:08:51;64804.88;;;-144.39;100.00
35910;BME280;22004;49.120;-0.200;2024-03-02T05:12:15;64804.88;;;-144.39;100.00
35910;BME280;22004;49.120;-0.200;2024-03-02T05:15:57;64804.88;;;-144.39;100.00
35910;BME280;22004;49.120;-0.200;2024-03-02T05:19:21;64804.88;;;-144.39;100.00
35910;BME280;22004;49.120;-0.200;2024-03-02T05:22:45;64804.88;;;-144.39;100.00
35910;BME280;22004;49.120;-0.200;2024-03-02T05:26:09;64804.88;;;-144.39;100.00
35910;BME280;22004;49.120;-0.200;2024-03-02T05:29:36;64804.88;;;-144.39;100.00
35910;BME280;22004;49.120;-0.200;2024-03-02T05:33:00;64804.88;;;-144.39;100.00
35910;BME280;22004;49.120;-0.200;2024-03-02T05:36:24;64804.88;;;-144.39;100.00
35910;BME280;22004;49.120;-0.200;2024-03-02T05:39:48;64804.88;;;-144.39;100.00
35910;BME280;22004;49.120;-0.200;2024-03-02T05:43:12;64804.88;;;-144.39;100.00
35910;BME280;22004;49.120;-0.200;2024-03-02T05:46:35;64804.88;;;-144.39;100.00
35910;BME280;22004;49.120;-0.200;2024-03-02T05:49:59;64804.88;;;-144.39;100.00
35910;BME280;22004;49.120;-0.200;2024-03-02T05:53:23;64804.88;;;-144.39;100.00
35910;BME280;22004;49.120;-0.200;2024-03-02T05:56:47;64804.88;;;-144.39;100.00
35910;BME280;22004;49.120;-0.200;2024-03-02T06:00:11;64804.88;;;-144.39;100.00
35910;BME280;22004;49.120;-0.200;2024-03-02T06:03:38;64804.88;;;-144.39;100.00
35910;BME280;22004;49.120;-0.200;2024-03-02T06:07:02;64804.88;;;-144.39;100.00
35910;BME280;22004;49.120;-0.200;2024-03-02T06:10:26;64804.88;;;-144.39;100.00
35910;BME280;22004;49.120;-0.200;2024-03-02T06:13:50;64804.88;;;-144.39;100.00
35910;BME280;22004;49.120;-0.200;2024-03-02T06:17:14;64804.88;;;-144.39;100.00
35910;BME280;22004;49.120;-0.200;2024-03-02T06:20:38;64804.88;;;-144.39;100.00
35910;BME280;22004;49.120;-0.200;2024-03-02T06:24:02;64804.88;;;-144.39;100.00
35910;BME280;22004;49.120;-0.200;2024-03-02T06:27:26;64804.88;;;-144.39;100.00
35910;BME280;22004;49.120;-0.200;2024-03-02T06:30:50;64804.88;;;-144.39;100.00
35910;BME280;22004;49.120;-0.200;2024-03-02T06:34:14;64804.88;;;-144.39;100.00
35910;BME280;22004;49.120;-0.200;2024-03-02T06:37:38;64804.88;;;-144.39;100.00
35910;BME280;22004;49.120;-0.200;2024-03-02T06:41:03;64804.88;;;-144.39;100.00
35910;BME280;22004;49.120;-0.200;2024-03-02T06:44:27;64804.88;;;-144.39;100.00
35910;BME280;22004;49.120;-0.200;2024-03-02T06:47:52;64804.88;;;-144.39;100.00
35910;BME280;22004;49.120;-0.200;2024-03-02T06:51:15;64804.88;;;-144.39;100.00
35910;BME280;22004;49.120;-0.200;2024-03-02T06:54:39;64804.88;;;-144.39;100.00
35910;BME280;22004;49.120;-0.200;2024-03-02T06:58:03;64804.88;;;-144.39;100.00
35910;BME280;22004;49.120;-0.200;2024-03-02T07:01:27;64804.88;;;-144.39;100.00
35910;BME280;22004;49.120;-0.200;2024-03-02T07:04:52;64804.88;;;-144.39;100.00
35910;BME280;22004;49.120;-0.200;2024-03-02T07:08:16;64804.88;;;-144.39;100.00
35910;BME280;22004;49.120;-0.200;2024-03-02T07:11:40;64804.88;;;-144.39;100.00
35910;BME280;22004;49.120;-0.200;2024-03-02T07:15:04;64804.88;;;-144.39;100.00
35910;BME280;22004;49.120;-0.200;2024-03-02T07:18:42;64804.88;;;-144.39;100.00
35910;BME280;22004;49.120;-0.200;2024-03-02T07:22:08;64804.88;;;-144.39;100.00
35910;BME280;22004;49.120;-0.200;2024-03-02T07:25:39;64804.88;;;-144.39;100.00
35910;BME280;22004;49.120;-0.200;2024-03-02T07:29:03;64804.88;;;-144.39;100.00
35910;BME280;22004;49.120;-0.200;2024-03-02T07:32:28;64804.88;;;-144.39;100.00
35910;BME280;22004;49.120;-0.200;2024-03-02T07:35:51;64804.88;;;-144.39;100.00
35910;BME280;22004;49.120;-0.200;2024-03-02T07:39:16;64804.88;;;-144.39;100.00
35910;BME280;22004;49.120;-0.200;2024-03-02T07:42:40;64804.88;;;-144.39;100.00
35910;BME280;22004;49.120;-0.200;2024-03-02T07:46:04;64804.88;;;-144.39;100.00
35910;BME280;22004;49.120;-0.200;2024-03-02T07:49:28;64804.88;;;-144.39;100.00
35910;BME280;22004;49.120;-0.200;2024-03-02T07:52:52;64804.88;;;-144.39;100.00
35910;BME280;22004;49.120;-0.200;2024-03-02T07:56:16;64804.88;;;-144.39;100.00
35910;BME280;22004;49.120;-0.200;2024-03-02T07:59:45;64804.88;;;-144.39;100.00
35910;BME280;22004;49.120;-0.200;2024-03-02T08:03:10;64804.88;;;-144.39;100.00
35910;BME280;22004;49.120;-0.200;2024-03-02T08:06:35;64804.88;;;-144.39;100.00
35910;BME280;22004;49.120;-0.200;2024-03-02T08:09:59;64804.88;;;-144.39;100.00
35910;BME280;22004;49.120;-0.200;2024-03-02T08:13:23;64804.88;;;-144.39;100.00
35910;BME280;22004;49.120;-0.200;2024-03-02T08:16:47;64804.88;;;-144.39;100.00
35910;BME280;22004;49.120;-0.200;2024-03-02T08:20:11;64804.88;;;-144.39;100.00
35910;BME280;22004;49.120;-0.200;2024-03-02T08:23:35;64804.88;;;-144.39;100.00
35910;BME280;22004;49.120;-0.200;2024-03-02T08:27:00;64804.88;;;-144.39;100.00
35910;BME280;22004;49.120;-0.200;2024-03-02T08:30:24;64804.88;;;-144.39;100.00
35910;BME280;22004;49.120;-0.200;2024-03-02T08:33:47;64804.88;;;-144.39;100.00
35910;BME280;22004;49.120;-0.200;2024-03-02T08:37:11;64804.88;;;-144.39;100.00
35910;BME280;22004;49.120;-0.200;2024-03-02T08:40:35;64804.88;;;-144.39;100.00
35910;BME280;22004;49.120;-0.200;2024-03-02T08:43:59;64804.88;;;-144.39;100.00
35910;BME280;22004;49.120;-0.200;2024-03-02T08:47:23;64804.88;;;-144.39;100.00
35910;BME280;22004;49.120;-0.200;2024-03-02T08:50:47;64804.88;;;-144.39;100.00
35910;BME280;22004;49.120;-0.200;2024-03-02T08:54:10;64804.88;;;-144.39;100.00
35910;BME280;22004;49.120;-0.200;2024-03-02T08:57:34;64804.88;;;-144.39;100.00
35910;BME280;22004;49.120;-0.200;2024-03-02T09:00:58;64804.88;;;-144.39;100.00
35910;BME280;22004;49.120;-0.200;2024-03-02T09:04:22;64804.88;;;-144.39;100.00
35910;BME280;22004;49.120;-0.200;2024-03-02T09:07:46;64804.88;;;-144.39;100.00
35910;BME280;22004;49.120;-0.200;2024-03-02T09:11:10;64804.88;;;-144.39;100.00
35910;BME280;22004;49.120;-0.200;2024-03-02T09:14:36;64804.88;;;-144.39;100.00
35910;BME280;22004;49.120;-0.200;2024-03-02T09:18:00;64804.88;;;-144.39;100.00
35910;BME280;22004;49.120;-0.200;2024-03-02T09:21:24;64804.88;;;-144.39;100.00
35910;BME280;22004;49.120;-0.200;2024-03-02T09:24:49;64804.88;;;-144.39;100.00
35910;BME280;22004;49.120;-0.200;2024-03-02T09:28:13;64804.88;;;-144.39;100.00
35910;BME280;22004;49.120;-0.200;2024-03-02T09:31:40;64804.88;;;-144.39;100.00
35910;BME280;22004;49.120;-0.200;2024-03-02T09:35:05;64804.88;;;-144.39;100.00
35910;BME280;22004;49.120;-0.200;2024-03-02T09:38:29;64804.88;;;-144.39;100.00
35910;BME280;22004;49.120;-0.200;2024-03-02T09:41:52;64804.88;;;-144.39;100.00
35910;BME280;22004;49.120;-0.200;2024-03-02T09:45:17;64804.88;;;-144.39;100.00
35910;BME280;22004;49.120;-0.200;2024-03-02T09:48:44;64804.88;;;-144.39;100.00
35910;BME280;22004;49.120;-0.200;2024-03-02T09:52:08;64804.88;;;-144.39;100.00
35910;BME280;22004;49.120;-0.200;2024-03-02T09:55:33;64804.88;;;-144.39;100.00
35910;BME280;22004;49.120;-0.200;2024-03-02T09:58:57;64804.88;;;-144.39;100.00
35910;BME280;22004;49.120;-0.200;2024-03-02T10:02:21;64804.88;;;-144.39;100.00
35910;BME280;22004;49.120;-0.200;2024-03-02T10:05:47;64804.88;;;-144.39;100.00
35910;BME280;22004;49.120;-0.200;2024-03-02T10:09:11;64804.88;;;-144.39;100.00
35910;BME280;22004;49.120;-0.200;2024-03-02T10:12:55;64804.88;;;-144.39;100.00
35910;BME280;22004;49.120;-0.200;2024-03-02T10:16:26;64804.88;;;-144.39;100.00
35910;BME280;22004;49.120;-0.200;2024-03-02T10:19:50;64804.88;;;-144.39;100.00
35910;BME280;22004;49.120;-0.200;2024-03-02T10:23:15;64804.88;;;-144.39;100.00
35910;BME280;22004;49.120;-0.200;2024-03-02T10:26:40;64804.88;;;-144.39;100.00
35910;BME280;22004;49.120;-0.200;2024-03-02T10:30:06;64804.88;;;-144.39;100.00
35910;BME280;22004;49.120;-0.200;2024-03-02T10:33:30;64804.88;;;-144.39;100.00
35910;BME280;22004;49.120;-0.200;2024-03-02T10:36:53;64804.88;;;-144.39;100.00
35910;BME280;22004;49.120;-0.200;2024-03-02T10:40:22;64804.88;;;-144.39;100.00
35910;BME280;22004;49.120;-0.200;2024-03-02T10:43:47;64804.88;;;-144.39;100.00
35910;BME280;22004;49.120;-0.200;2024-03-02T10:47:12;64804.88;;;-144.39;100.00
35910;BME280;22004;49.120;-0.200;2024-03-02T10:50:40;64804.88;;;-144.39;100.00
35910;BME280;22004;49.120;-0.200;2024-03-02T10:54:04;64804.88;;;-144.39;100.00
35910;BME280;22004;49.120;-0.200;2024-03-02T10:57:33;64804.88;;;-144.39;100.00
35910;BME280;22004;49.120;-0.200;2024-03-02T11:01:04;64804.88;;;-144.39;100.00
35910;BME280;22004;49.120;-0.200;2024-03-02T11:04:32;64804.88;;;-144.39;100.00
35910;BME280;22004;49.120;-0.200;2024-03-02T11:08:00;64804.88;;;-144.39;100.00
35910;BME280;22004;49.120;-0.200;2024-03-02T11:11:29;64804.88;;;-144.39;100.00
35910;BME280;22004;49.120;-0.200;2024-03-02T11:14:55;64804.88;;;-144.39;100.00
35910;BME280;22004;49.120;-0.200;2024-03-02T11:18:20;64804.88;;;-144.39;100.00
35910;BME280;22004;49.120;-0.200;2024-03-02T11:21:44;64804.88;;;-144.39;100.00
35910;BME280;22004;49.120;-0.200;2024-03-02T11:25:27;64804.88;;;-144.39;100.00
35910;BME280;22004;49.120;-0.200;2024-03-02T11:28:51;64804.88;;;-144.39;100.00
35910;BME280;22004;49.120;-0.200;2024-03-02T11:32:16;64804.88;;;-144.39;100.00
35910;BME280;22004;49.120;-0.200;2024-03-02T11:35:42;64804.88;;;-144.39;100.00
35910;BME280;22004;49.120;-0.200;2024-03-02T11:39:12;64804.88;;;-144.39;100.00
35910;BME280;22004;49.120;-0.200;2024-03-02T11:42:36;64804.88;;;-144.39;100.00
35910;BME280;22004;49.120;-0.200;2024-03-02T11:46:03;64804.88;;;-144.39;100.00
35910;BME280;22004;49.120;-0.200;2024-03-02T11:49:41;64804.88;;;-144.39;100.00
35910;BME280;22004;49.120;-0.200;2024-03-02T11:53:07;64804.88;;;-144.39;100.00
35910;BME280;22004;49.120;-0.200;2024-03-02T11:56:35;64804.88;;;-144.39;100.00
35910;BME280;22004;49.120;-0.200;2024-03-02T11:59:59;64804.88;;;-144.39;100.00
35910;BME280;22004;49.120;-0.200;2024-03-02T12:03:25;64804.88;;;-144.39;100.00
35910;BME280;22004;49.120;-0.200;2024-03-02T12:06:59;64804.88;;;-144.39;100.00
35910;BME280;22004;49.120;-0.200;2024-03-02T12:10:24;64804.88;;;-144.39;100.00
35910;BME280;22004;49.120;-0.200;2024-03-02T12:13:57;64804.88;;;-144.39;100.00
35910;BME280;22004;49.120;-0.200;2024-03-02T12:17:23;64804.88;;;-144.39;100.00
35910;BME280;22004;49.120;-0.200;2024-03-02T12:20:48;64804.88;;;-144.39;100.00
35910;BME280;22004;49.120;-0.200;2024-03-02T12:24:12;64804.88;;;-144.39;100.00
35910;BME280;22004;49.120;-0.200;2024-03-02T12:27:36;64804.88;;;-144.39;100.00
35910;BME280;22004;49.120;-0.200;2024-03-02T12:31:02;64804.88;;;-144.39;100.00
35910;BME280;22004;49.120;-0.200;2024-03-02T12:34:25;64804.88;;;-144.39;100.00
35910;BME280;22004;49.120;-0.200;2024-03-02T12:37:50;64804.88;;;-144.39;100.00
35910;BME280;22004;49.120;-0.200;2024-03-02T12:41:15;64804.88;;;-144.39;100.00
35910;BME280;22004;49.120;-0.200;2024-03-02T12:44:39;64804.88;;;-144.39;100.00
35910;BME280;22004;49.120;-0.200;2024-03-02T12:48:04;64804.88;;;-144.39;100.00
35910;BME280;22004;49.120;-0.200;2024-03-02T12:51:28;64804.88;;;-144.39;100.00
35910;BME280;22004;49.120;-0.200;2024-03-02T12:54:53;64804.88;;;-144.39;100.00
35910;BME280;22004;49.120;-0.200;2024-03-02T12:58:23;64804.88;;;-144.39;100.00
35910;BME280;22004;49.120;-0.200;2024-03-02T13:01:51;64804.88;;;-144.39;100.00
35910;BME280;22004;49.120;-0.200;2024-03-02T13:05:15;64804.88;;;-144.39;100.00
35910;BME280;22004;49.120;-0.200;2024-03-02T13:08:39;64804.88;;;-144.39;100.00
35910;BME280;22004;49.120;-0.200;2024-03-02T13:12:03;64804.88;;;-144.39;100.00
35910;BME280;22004;49.120;-0.200;2024-03-02T13:15:32;64804.88;;;-144.39;100.00
35910;BME280;22004;49.120;-0.200;2024-03-02T13:18:59;64804.88;;;-144.39;100.00
35910;BME280;22004;49.120;-0.200;2024-03-02T13:22:24;64804.88;;;-144.39;100.00
35910;BME280;22004;49.120;-0.200;2024-03-02T13:25:48;64804.88;;;-144.39;100.00
35910;BME280;22004;49.120;-0.200;2024-03-02T13:29:12;64804.88;;;-144.39;100.00
35910;BME280;22004;49.120;-0.200;2024-03-02T13:32:36;64804.88;;;-144.39;100.00
35910;BME280;22004;49.120;-0.200;2024-03-02T13:36:00;64804.88;;;-144.39;100.00
35910;BME280;22004;49.120;-0.200;2024-03-02T13:39:25;64804.88;;;-144.39;100.00
35910;BME280;22004;49.120;-0.200;2024-03-02T13:42:50;64804.88;;;-144.39;100.00
35910;BME280;22004;49.120;-0.200;2024-03-02T13:46:15;64804.88;;;-144.39;100.00
35910;BME280;22004;49.120;-0.200;2024-03-02T13:49:39;64804.88;;;-144.39;100.00
35910;BME280;22004;49.120;-0.200;2024-03-02T13:53:07;64804.88;;;-144.39;100.00
35910;BME280;22004;49.120;-0.200;2024-03-02T13:56:31;64804.88;;;-144.39;100.00
35910;BME280;22004;49.120;-0.200;2024-03-02T13:59:56;64804.88;;;-144.39;100.00
35910;BME280;22004;49.120;-0.200;2024-03-02T14:03:20;64804.88;;;-144.39;100.00
35910;BME280;22004;49.120;-0.200;2024-03-02T14:06:44;64804.88;;;-144.39;100.00
35910;BME280;22004;49.120;-0.200;2024-03-02T14:10:08;64804.88;;;-144.39;100.00
35910;BME280;22004;49.120;-0.200;2024-03-02T14:13:32;64804.88;;;-144.39;100.00
35910;BME280;22004;49.120;-0.200;2024-03-02T14:16:56;64804.88;;;-144.39;100.00
35910;BME280;22004;49.120;-0.200;2024-03-02T14:20:20;64804.88;;;-144.39;100.00
35910;BME280;22004;49.120;-0.200;2024-03-02T14:23:45;64804.88;;;-144.39;100.00
35910;BME280;22004;49.120;-0.200;2024-03-02T14:27:09;64804.88;;;-144.39;100.00
35910;BME280;22004;49.120;-0.200;2024-03-02T14:30:33;64804.88;;;-144.39;100.00
35910;BME280;22004;49.120;-0.200;2024-03-02T14:33:57;64804.88;;;-144.39;100.00
35910;BME280;22004;49.120;-0.200;2024-03-02T14:37:21;64804.88;;;-144.39;100.00
35910;BME280;22004;49.120;-0.200;2024-03-02T14:40:45;64804.88;;;-144.39;100.00
35910;BME280;22004;49.120;-0.200;2024-03-02T14:44:09;64804.88;;;-144.39;100.00
35910;BME280;22004;49.120;-0.200;2024-03-02T14:47:33;64804.88;;;-144.39;100.00
35910;BME280;22004;49.120;-0.200;2024-03-02T14:50:58;64804.88;;;-144.39;100.00
35910;BME280;22004;49.120;-0.200;2024-03-02T14:54:22;64804.88;;;-144.39;100.00
35910;BME280;22004;49.120;-0.200;2024-03-02T14:57:45;64804.88;;;-144.39;100.00
35910;BME280;22004;49.120;-0.200;2024-03-02T15:01:09;64804.88;;;-144.39;100.00
35910;BME280;22004;49.120;-0.200;2024-03-02T15:04:34;64804.88;;;-144.39;100.00
35910;BME280;22004;49.120;-0.200;2024-03-02T15:07:58;64804.88;;;-144.39;100.00
35910;BME280;22004;49.120;-0.200;2024-03-02T15:11:23;64804.88;;;-144.39;100.00
35910;BME280;22004;49.120;-0.200;2024-03-02T15:14:48;64804.88;;;-144.39;100.00
35910;BME280;22004;49.120;-0.200;2024-03-02T15:18:13;64804.88;;;-144.39;100.00
35910;BME280;22004;49.120;-0.200;2024-03-02T15:21:36;64804.88;;;-144.39;100.00
35910;BME280;22004;49.120;-0.200;2024-03-02T15:25:00;64804.88;;;-144.39;100.00
35910;BME280;22004;49.120;-0.200;2024-03-02T15:28:24;64804.88;;;-144.39;100.00
35910;BME280;22004;49.120;-0.200;2024-03-02T15:31:48;64804.88;;;-144.39;100.00
35910;BME280;22004;49.120;-0.200;2024-03-02T15:35:12;64804.88;;;-144.39;100.00
35910;BME280;22004;49.120;-0.200;2024-03-02T15:38:36;64804.88;;;-144.39;100.00
35910;BME280;22004;49.120;-0.200;2024-03-02T15:42:01;64804.88;;;-144.39;100.00
35910;BME280;22004;49.120;-0.200;2024-03-02T15:45:27;64804.88;;;-144.39;100.00
35910;BME280;22004;49.120;-0.200;2024-03-02T15:48:56;64804.88;;;-144.39;100.00
35910;BME280;22004;49.120;-0.200;2024-03-02T15:52:21;64804.88;;;-144.39;100.00
35910;BME280;22004;49.120;-0.200;2024-03-02T15:55:47;64804.88;;;-144.39;100.00
35910;BME280;22004;49.120;-0.200;2024-03-02T15:59:11;64804.88;;;-144.39;100.00
35910;BME280;22004;49.120;-0.200;2024-03-02T16:02:35;64804.88;;;-144.39;100.00
35910;BME280;22004;49.120;-0.200;2024-03-02T16:05:59;64804.88;;;-144.39;100.00
35910;BME280;22004;49.120;-0.200;2024-03-02T16:09:23;64804.88;;;-144.39;100.00
35910;BME280;22004;49.120;-0.200;2024-03-02T16:12:47;64804.88;;;-144.39;100.00